createdAt,value
2022-10-14T00:01:33.094Z,100040.31
2022-10-14T00:04:21.082Z,100039.91
2022-10-14T00:07:09.099Z,100044.84
2022-10-14T00:09:56.936Z,100037.59
2022-10-14T00:12:45.396Z,100032.75
2022-10-14T00:15:39.576Z,100033.38
2022-10-14T00:18:27.334Z,100029.19
2022-10-14T00:21:16.655Z,100023.31
2022-10-14T00:24:04.897Z,100028.63
2022-10-14T00:26:52.782Z,100027.03
2022-10-14T00:29:40.573Z,100026.69
2022-10-14T00:32:28.400Z,100034.09
2022-10-14T00:35:16.659Z,100031.16
2022-10-14T00:38:04.571Z,100034.25
2022-10-14T00:40:53.214Z,100043.41
2022-10-14T00:44:12.782Z,100040.63
2022-10-14T00:47:00.644Z,100036.44
2022-10-14T00:49:48.488Z,100043.22
2022-10-14T00:52:36.563Z,100039.50
2022-10-14T00:55:24.476Z,100046.16
2022-10-14T00:58:12.631Z,100047.19
2022-10-14T01:01:00.595Z,100037.19
2022-10-14T01:03:49.441Z,100041.63
2022-10-14T01:07:09.262Z,100035.34
2022-10-14T01:10:16.935Z,100040.09
2022-10-14T01:13:34.025Z,100039.81
2022-10-14T01:17:07.369Z,100031.78
2022-10-14T01:20:16.343Z,100036.56
2022-10-14T01:23:22.591Z,100027.44
2022-10-14T01:27:02.930Z,100016.31
2022-10-14T01:30:13.946Z,100021.56
2022-10-14T01:33:24.380Z,100025.78
2022-10-14T01:36:27.418Z,100015.28
2022-10-14T01:39:32.512Z,100005.94
2022-10-14T01:42:26.298Z,100010.28
2022-10-14T01:45:21.139Z,100002.13
2022-10-14T01:48:12.199Z,100001.34
2022-10-14T01:51:04.681Z,99992.72
2022-10-14T01:54:02.121Z,100002.13
2022-10-14T01:56:52.997Z,100002.44
2022-10-14T01:59:41.424Z,99992.75
2022-10-14T02:02:29.384Z,99998.88
2022-10-14T02:05:26.041Z,99984.81
2022-10-14T02:08:45.967Z,99983.91
2022-10-14T02:12:08.798Z,99976.63
2022-10-14T02:15:11.692Z,99985.56
2022-10-14T02:18:33.676Z,99982.03
2022-10-14T02:21:41.375Z,99978.69
2022-10-14T02:24:48.019Z,99974.34
2022-10-14T02:27:37.001Z,99973.09
2022-10-14T02:30:27.598Z,99972.63
2022-10-14T02:33:16.100Z,99965.72
2022-10-14T02:36:08.206Z,99954.72
2022-10-14T02:39:00.933Z,99962.94
2022-10-14T02:41:48.922Z,99951.03
2022-10-14T02:44:36.934Z,99958.75
2022-10-14T02:47:25.121Z,99944.72
2022-10-14T02:50:12.949Z,99946.28
2022-10-14T02:53:00.833Z,99942.88
2022-10-14T02:55:48.891Z,99943.50
2022-10-14T02:58:36.847Z,99933.94
2022-10-14T03:01:24.719Z,99931.19
2022-10-14T03:04:12.481Z,99925.31
2022-10-14T03:07:00.389Z,99927.91
2022-10-14T03:09:48.223Z,99929.16
2022-10-14T03:12:36.115Z,99920.81
2022-10-14T03:15:24.246Z,99924.03
2022-10-14T03:18:12.086Z,99916.94
2022-10-14T03:20:59.951Z,99913.41
2022-10-14T03:23:48.024Z,99918.19
2022-10-14T03:26:36.078Z,99922.03
2022-10-14T03:29:23.883Z,99925.13
2022-10-14T03:32:11.710Z,99919.09
2022-10-14T03:34:59.494Z,99921.28
2022-10-14T03:37:47.732Z,99917.41
2022-10-14T03:40:35.570Z,99912.00
2022-10-14T03:43:23.470Z,99914.47
2022-10-14T03:46:11.338Z,99914.44
2022-10-14T03:48:59.270Z,99911.84
2022-10-14T03:51:47.306Z,99909.06
2022-10-14T03:54:36.327Z,99903.34
2022-10-14T03:57:24.287Z,99907.03
2022-10-14T04:00:13.380Z,99899.19
2022-10-14T04:03:01.321Z,99910.44
2022-10-14T04:05:49.222Z,99899.00
2022-10-14T04:08:37.092Z,99896.22
2022-10-14T04:11:24.938Z,99899.78
2022-10-14T04:14:12.834Z,99898.41
2022-10-14T04:17:00.663Z,99905.19
2022-10-14T04:19:48.740Z,99900.72
2022-10-14T04:22:36.591Z,99900.41
2022-10-14T04:25:24.404Z,99897.63
2022-10-14T04:28:12.278Z,99896.41
2022-10-14T04:31:00.670Z,99903.34
2022-10-14T04:33:48.871Z,99894.09
2022-10-14T04:36:37.037Z,99896.84
2022-10-14T04:39:24.964Z,99894.56
2022-10-14T04:42:13.083Z,99897.50
2022-10-14T04:45:01.006Z,99890.25
2022-10-14T04:47:49.151Z,99871.84
2022-10-14T04:50:37.041Z,99874.19
2022-10-14T04:53:25.009Z,99883.28
2022-10-14T04:56:12.899Z,99879.56
2022-10-14T04:59:00.703Z,99879.44
2022-10-14T05:01:48.767Z,99873.88
2022-10-14T05:04:36.722Z,99876.19
2022-10-14T05:07:24.661Z,99876.81
2022-10-14T05:10:12.489Z,99876.66
2022-10-14T05:13:00.309Z,99868.94
2022-10-14T05:15:48.362Z,99868.47
2022-10-14T05:18:36.456Z,99871.41
2022-10-14T05:21:24.449Z,99869.72
2022-10-14T05:24:12.213Z,99868.63
2022-10-14T05:27:00.117Z,99864.00
2022-10-14T05:29:48.985Z,99859.53
2022-10-14T05:32:39.561Z,99854.75
2022-10-14T05:35:53.626Z,99861.84
2022-10-14T05:38:35.993Z,99853.19
2022-10-14T05:41:24.210Z,99852.25
2022-10-14T05:44:12.856Z,99853.81
2022-10-14T05:47:00.757Z,99860.13
2022-10-14T05:49:48.899Z,99851.34
2022-10-14T05:52:37.347Z,99854.88
2022-10-14T05:55:25.492Z,99852.41
2022-10-14T05:58:13.391Z,99853.81
2022-10-14T06:01:07.762Z,99849.94
2022-10-14T06:03:55.747Z,99846.69
2022-10-14T06:06:43.585Z,99839.13
2022-10-14T06:09:32.009Z,99847.63
2022-10-14T06:12:22.529Z,99852.09
2022-10-14T06:15:11.112Z,99852.09
2022-10-14T06:17:59.329Z,99845.47
2022-10-14T06:20:54.554Z,99842.41
2022-10-14T06:23:42.666Z,99843.94
2022-10-14T06:26:30.979Z,99847.34
2022-10-14T06:29:19.610Z,99843.31
2022-10-14T06:32:10.669Z,99837.75
2022-10-14T06:34:59.357Z,99837.91
2022-10-14T06:37:48.167Z,99839.63
2022-10-14T06:40:38.193Z,99842.06
2022-10-14T06:43:26.119Z,99845.63
2022-10-14T06:46:14.059Z,99844.06
2022-10-14T06:49:04.980Z,99847.16
2022-10-14T06:51:52.845Z,99840.50
2022-10-14T06:54:43.598Z,99847.75
2022-10-14T06:57:35.315Z,99849.94
2022-10-14T07:00:23.193Z,99847.63
2022-10-14T07:03:11.086Z,99851.31
2022-10-14T07:05:59.003Z,99847.91
2022-10-14T07:08:46.876Z,99842.06
2022-10-14T07:11:35.187Z,99839.56
2022-10-14T07:14:23.262Z,99849.63
2022-10-14T07:17:11.306Z,99846.19
2022-10-14T07:19:59.593Z,99848.25
2022-10-14T07:22:47.551Z,99838.78
2022-10-14T07:25:35.759Z,99842.22
2022-10-14T07:28:24.538Z,99837.56
2022-10-14T07:31:13.892Z,99843.91
2022-10-14T07:34:05.076Z,99840.47
2022-10-14T07:36:53.189Z,99841.13
2022-10-14T07:39:41.110Z,99843.56
2022-10-14T07:42:28.915Z,99844.69
2022-10-14T07:45:18.881Z,99846.53
2022-10-14T07:48:09.552Z,99845.59
2022-10-14T07:50:57.573Z,99845.25
2022-10-14T07:53:45.562Z,99838.28
2022-10-14T07:56:34.835Z,99848.50
2022-10-14T07:59:22.803Z,99846.97
2022-10-14T08:02:12.722Z,99849.91
2022-10-14T08:05:25.619Z,99846.84
2022-10-14T08:08:11.930Z,99848.69
2022-10-14T08:11:13.698Z,99858.25
2022-10-14T08:14:02.275Z,99847.31
2022-10-14T08:16:50.257Z,99847.63
2022-10-14T08:19:41.909Z,99836.00
2022-10-14T08:22:29.856Z,99852.88
2022-10-14T08:25:18.218Z,99853.31
2022-10-14T08:28:06.578Z,99849.75
2022-10-14T08:30:54.861Z,99837.38
2022-10-14T08:33:43.281Z,99853.47
2022-10-14T08:36:31.403Z,99842.47
2022-10-14T08:39:20.937Z,99844.91
2022-10-14T08:42:38.053Z,99831.94
2022-10-14T08:45:40.147Z,99833.66
2022-10-14T08:48:29.460Z,99827.00
2022-10-14T08:51:20.205Z,99827.78
2022-10-14T08:54:15.897Z,99825.56
2022-10-14T08:57:05.903Z,99830.97
2022-10-14T08:59:54.934Z,99844.91
2022-10-14T09:02:51.909Z,99841.50
2022-10-14T09:05:40.609Z,99839.06
2022-10-14T09:08:42.425Z,99836.59
2022-10-14T09:11:39.334Z,99829.94
2022-10-14T09:14:47.209Z,99832.88
2022-10-14T09:17:52.493Z,99832.28
2022-10-14T09:20:42.051Z,99824.50
2022-10-14T09:23:34.253Z,99821.19
2022-10-14T09:26:34.887Z,99824.44
2022-10-14T09:29:34.893Z,99811.03
2022-10-14T09:32:38.330Z,99812.47
2022-10-14T09:35:43.072Z,99796.72
2022-10-14T09:38:38.636Z,99807.56
2022-10-14T09:41:31.499Z,99795.31
2022-10-14T09:44:26.257Z,99795.94
2022-10-14T09:47:25.106Z,99800.84
2022-10-14T09:50:33.166Z,99781.03
2022-10-14T09:53:28.547Z,99772.59
2022-10-14T09:56:34.286Z,99773.50
2022-10-14T09:59:25.398Z,99769.56
2022-10-14T10:02:35.105Z,99762.25
2022-10-14T10:05:32.330Z,99752.09
2022-10-14T10:08:20.419Z,99751.34
2022-10-14T10:11:14.008Z,99754.84
2022-10-14T10:14:22.614Z,99757.53
2022-10-14T10:17:10.974Z,99763.19
2022-10-14T10:20:28.296Z,99741.63
2022-10-14T10:23:25.638Z,99747.88
2022-10-14T10:26:28.497Z,99750.91
2022-10-14T10:29:34.733Z,99751.59
2022-10-14T10:32:54.891Z,99751.00
2022-10-14T10:36:23.817Z,99747.50
2022-10-14T10:39:39.901Z,99745.66
2022-10-14T10:42:39.844Z,99737.72
2022-10-14T10:46:13.117Z,99733.19
2022-10-14T10:50:00.736Z,99741.75
2022-10-14T10:53:23.383Z,99738.19
2022-10-14T10:57:01.758Z,99733.19
2022-10-14T11:00:18.049Z,99726.06
2022-10-14T11:03:28.867Z,99723.25
2022-10-14T11:06:57.005Z,99717.19
2022-10-14T11:10:34.892Z,99712.16
2022-10-14T11:13:39.283Z,99718.06
2022-10-14T11:16:43.330Z,99700.50
2022-10-14T11:20:14.398Z,99701.19
2022-10-14T11:23:23.741Z,99689.38
2022-10-14T11:26:28.996Z,99688.00
2022-10-14T11:29:30.797Z,99675.63
2022-10-14T11:32:59.552Z,99675.03
2022-10-14T11:36:33.653Z,99676.66
2022-10-14T11:39:42.898Z,99662.78
2022-10-14T11:43:19.361Z,99669.34
2022-10-14T11:46:21.090Z,99672.03
2022-10-14T11:49:45.116Z,99651.28
2022-10-14T11:52:47.589Z,99653.09
2022-10-14T11:55:44.646Z,99650.69
2022-10-14T11:58:42.196Z,99647.53
2022-10-14T12:01:35.696Z,99640.03
2022-10-14T12:04:34.918Z,99640.09
2022-10-14T12:07:39.356Z,99643.72
2022-10-14T12:10:42.264Z,99621.09
2022-10-14T12:13:51.756Z,99629.16
2022-10-14T12:16:48.496Z,99640.38
2022-10-14T12:19:42.471Z,99615.72
2022-10-14T12:22:52.382Z,99622.22
2022-10-14T12:29:47.543Z,99626.28
2022-10-14T12:32:38.515Z,99608.56
2022-10-14T12:36:02.009Z,99609.72
2022-10-14T12:39:18.533Z,99617.66
2022-10-14T12:42:25.766Z,99601.16
2022-10-14T12:45:49.375Z,99596.97
2022-10-14T12:48:52.509Z,99613.81
2022-10-14T12:52:10.584Z,99597.72
2022-10-14T12:55:05.530Z,99597.31
2022-10-14T12:58:50.663Z,99601.91
2022-10-14T13:01:54.103Z,99587.41
2022-10-14T13:05:34.747Z,99590.38
2022-10-14T13:08:24.781Z,99573.00
2022-10-14T13:11:30.131Z,99574.19
2022-10-14T13:14:41.781Z,99579.84
2022-10-14T13:18:01.523Z,99583.69
2022-10-14T13:20:53.375Z,99590.47
2022-10-14T13:23:47.847Z,99581.56
2022-10-14T13:26:48.531Z,99578.28
2022-10-14T13:30:18.619Z,99563.44
2022-10-14T13:33:48.250Z,99570.34
2022-10-14T13:36:57.228Z,99558.91
2022-10-14T13:39:45.977Z,99561.41
2022-10-14T13:42:37.366Z,99560.66
2022-10-14T13:46:10.626Z,99543.94
2022-10-14T13:49:08.257Z,99540.69
2022-10-14T13:52:19.682Z,99534.94
2022-10-14T13:55:25.938Z,99522.84
2022-10-14T13:58:17.520Z,99526.28
2022-10-14T14:01:12.190Z,99521.59
2022-10-14T14:04:00.808Z,99522.16
2022-10-14T14:07:03.472Z,99523.72
2022-10-14T14:10:08.302Z,99517.09
2022-10-14T14:13:10.978Z,99514.31
2022-10-14T14:16:02.195Z,99520.16
2022-10-14T14:22:29.151Z,99508.25
2022-10-14T14:38:38.615Z,99507.09
2022-10-14T14:47:39.222Z,99456.91
2022-10-14T14:50:33.370Z,99477.53
2022-10-14T14:53:24.432Z,99481.75
2022-10-14T14:56:24.900Z,99474.66
2022-10-14T14:59:38.988Z,99454.75
2022-10-14T15:02:33.138Z,99445.28
2022-10-14T15:05:29.945Z,99472.16
2022-10-14T15:08:24.097Z,99462.66
2022-10-14T15:14:00.486Z,99454.38
2022-10-14T15:16:54.267Z,99462.25
2022-10-14T15:19:42.302Z,99466.06
2022-10-14T15:22:32.267Z,99466.56
2022-10-14T15:25:29.657Z,99465.13
2022-10-14T15:28:33.905Z,99469.53
2022-10-14T15:31:21.843Z,99460.69
2022-10-14T15:34:23.279Z,99448.91
2022-10-14T15:37:16.652Z,99458.41
2022-10-14T15:40:11.930Z,99455.16
2022-10-14T15:42:59.965Z,99452.47
2022-10-14T15:46:23.343Z,99441.88
2022-10-14T15:49:28.571Z,99441.31
2022-10-14T15:52:19.412Z,99433.16
2022-10-14T15:55:22.234Z,99437.75
2022-10-14T15:58:10.181Z,99431.22
2022-10-14T16:00:58.057Z,99436.03
2022-10-14T16:03:49.434Z,99433.50
2022-10-14T16:06:44.682Z,99430.78
2022-10-14T16:09:35.743Z,99432.50
2022-10-14T16:12:25.823Z,99433.28
2022-10-14T16:15:27.326Z,99428.84
2022-10-14T16:18:15.730Z,99430.69
2022-10-14T16:21:03.784Z,99421.28
2022-10-14T16:23:52.924Z,99420.31
2022-10-14T16:26:44.807Z,99412.50
2022-10-14T16:29:35.688Z,99415.59
2022-10-14T16:32:23.834Z,99414.66
2022-10-14T16:35:14.668Z,99405.38
2022-10-14T16:38:02.917Z,99416.38
2022-10-14T16:40:59.579Z,99399.31
2022-10-14T16:43:47.911Z,99401.47
2022-10-14T16:46:54.580Z,99398.88
2022-10-14T16:50:04.224Z,99405.50
2022-10-14T16:53:11.125Z,99400.63
2022-10-14T16:55:59.320Z,99394.97
2022-10-14T16:58:47.820Z,99397.09
2022-10-14T17:01:36.160Z,99402.94
2022-10-14T17:04:24.893Z,99395.41
2022-10-14T17:07:14.986Z,99405.38
2022-10-14T17:10:03.376Z,99412.34
2022-10-14T17:12:51.340Z,99410.25
2022-10-14T17:15:39.341Z,99415.31
2022-10-14T17:18:30.996Z,99419.91
2022-10-14T17:21:22.669Z,99395.34
2022-10-14T17:24:11.853Z,99399.31
2022-10-14T17:27:09.132Z,99400.97
2022-10-14T17:29:57.705Z,99407.00
2022-10-14T17:32:46.190Z,99402.97
2022-10-14T17:35:37.012Z,99404.66
2022-10-14T17:38:29.116Z,99414.47
2022-10-14T17:41:21.427Z,99400.69
2022-10-14T17:44:09.310Z,99393.56
2022-10-14T17:46:57.333Z,99415.09
2022-10-14T17:49:45.530Z,99421.03
2022-10-14T17:52:36.426Z,99414.63
2022-10-14T17:55:26.974Z,99410.09
2022-10-14T17:58:15.275Z,99388.41
2022-10-14T18:01:11.059Z,99376.22
2022-10-14T18:04:00.376Z,99374.19
2022-10-14T18:06:51.811Z,99388.72
2022-10-14T18:09:39.857Z,99398.56
2022-10-14T18:12:34.284Z,99405.69
2022-10-14T18:15:34.364Z,99397.91
2022-10-14T18:18:23.933Z,99388.00
2022-10-14T18:21:15.539Z,99393.56
2022-10-14T18:24:05.695Z,99389.75
2022-10-14T18:27:01.259Z,99380.81
2022-10-14T18:29:49.341Z,99373.03
2022-10-14T18:32:37.842Z,99374.53
2022-10-14T18:35:26.712Z,99367.66
2022-10-14T18:38:22.466Z,99372.53
2022-10-14T18:41:14.989Z,99373.56
2022-10-14T18:44:06.612Z,99368.31
2022-10-14T18:46:55.342Z,99368.22
2022-10-14T18:49:43.327Z,99358.59
2022-10-14T18:52:32.701Z,99347.75
2022-10-14T18:55:21.333Z,99342.13
2022-10-14T18:58:09.475Z,99348.44
2022-10-14T19:00:57.334Z,99366.50
2022-10-14T19:03:45.432Z,99365.22
2022-10-14T19:06:34.838Z,99344.41
2022-10-14T19:09:29.677Z,99341.41
2022-10-14T19:12:36.336Z,99332.00
2022-10-14T19:15:29.027Z,99343.44
2022-10-14T19:18:17.486Z,99332.47
2022-10-14T19:21:19.797Z,99314.38
2022-10-14T19:24:09.287Z,99321.34
2022-10-14T19:26:57.561Z,99328.19
2022-10-14T19:29:45.696Z,99327.41
2022-10-14T19:32:35.949Z,99321.06
2022-10-14T19:35:24.131Z,99325.16
2022-10-14T19:38:12.405Z,99319.59
2022-10-14T19:41:11.594Z,99320.03
2022-10-14T19:44:12.393Z,99308.63
2022-10-14T19:47:03.303Z,99312.06
2022-10-14T19:49:51.369Z,99318.16
2022-10-14T19:52:39.617Z,99307.97
2022-10-14T19:55:29.638Z,99314.84
2022-10-14T19:58:20.832Z,99320.94
2022-10-14T20:01:14.814Z,99322.44
2022-10-14T20:04:05.334Z,99314.59
2022-10-14T20:07:01.782Z,99317.88
2022-10-14T20:09:49.798Z,99301.56
2022-10-14T20:12:51.460Z,99300.03
2022-10-14T20:15:39.535Z,99310.19
2022-10-14T20:18:30.203Z,99299.03
2022-10-14T20:21:18.668Z,99300.31
2022-10-14T20:24:08.873Z,99299.53
2022-10-14T20:27:07.937Z,99314.00
2022-10-14T20:30:02.845Z,99294.94
2022-10-14T20:33:08.682Z,99295.72
2022-10-14T20:36:14.107Z,99284.78
2022-10-14T20:39:02.107Z,99280.19
2022-10-14T20:41:54.798Z,99277.19
2022-10-14T20:45:09.750Z,99278.09
2022-10-14T20:48:03.427Z,99266.69
2022-10-14T20:50:51.354Z,99266.03
2022-10-14T20:56:29.550Z,99263.53
2022-10-14T20:59:17.454Z,99270.06
2022-10-14T21:02:15.039Z,99269.09
2022-10-14T21:05:03.664Z,99253.59
2022-10-14T21:08:00.737Z,99265.50
2022-10-14T21:11:00.670Z,99252.63
2022-10-14T21:13:52.339Z,99258.47
2022-10-14T21:16:42.698Z,99250.88
2022-10-14T21:19:31.206Z,99253.16
2022-10-14T21:22:20.838Z,99251.72
2022-10-14T21:25:09.400Z,99244.81
2022-10-14T21:27:57.320Z,99250.56
2022-10-14T21:30:45.821Z,99252.63
2022-10-14T21:33:34.625Z,99239.81
2022-10-14T21:36:22.703Z,99244.28
2022-10-14T21:39:14.652Z,99242.81
2022-10-14T21:42:02.419Z,99247.31
2022-10-14T21:44:50.257Z,99236.47
2022-10-14T21:47:38.258Z,99234.09
2022-10-14T21:50:31.177Z,99236.03
2022-10-14T21:53:19.107Z,99227.56
2022-10-14T21:56:07.854Z,99217.19
2022-10-14T21:58:56.279Z,99222.28
2022-10-14T22:01:44.306Z,99214.47
2022-10-14T22:04:34.595Z,99215.72
2022-10-14T22:07:28.221Z,99214.75
2022-10-14T22:10:34.729Z,99203.31
2022-10-14T22:13:22.627Z,99202.06
2022-10-14T22:16:10.467Z,99199.03
2022-10-14T22:19:00.949Z,99197.28
2022-10-14T22:21:48.824Z,99193.59
2022-10-14T22:24:36.789Z,99194.84
2022-10-14T22:27:24.920Z,99178.94
2022-10-14T22:30:13.815Z,99188.06
2022-10-14T22:33:01.773Z,99186.47
2022-10-14T22:35:51.351Z,99186.69
2022-10-14T22:38:42.019Z,99189.00
2022-10-14T22:41:34.853Z,99180.91
2022-10-14T22:44:23.416Z,99175.53
2022-10-14T22:47:11.264Z,99172.75
2022-10-14T22:49:59.095Z,99177.34
2022-10-14T22:52:47.003Z,99185.09
2022-10-14T22:55:34.937Z,99169.84
2022-10-14T22:58:22.826Z,99160.31
2022-10-14T23:01:14.665Z,99172.22
2022-10-14T23:04:02.944Z,99162.25
2022-10-14T23:06:51.534Z,99170.13
2022-10-14T23:09:39.487Z,99166.63
2022-10-14T23:12:27.407Z,99162.88
2022-10-14T23:15:15.189Z,99155.81
2022-10-14T23:18:03.828Z,99155.09
2022-10-14T23:20:51.724Z,99148.94
2022-10-14T23:23:40.273Z,99151.00
2022-10-14T23:26:31.820Z,99154.16
2022-10-14T23:29:19.651Z,99162.16
2022-10-14T23:32:07.510Z,99159.38
2022-10-14T23:34:55.327Z,99149.75
2022-10-14T23:37:43.373Z,99149.06
2022-10-14T23:40:31.272Z,99145.75
2022-10-14T23:43:19.371Z,99138.28
2022-10-14T23:46:07.911Z,99129.44
2022-10-14T23:49:06.921Z,99126.25
2022-10-14T23:51:55.789Z,99121.47
2022-10-14T23:54:43.647Z,99123.72
2022-10-14T23:57:31.620Z,99137.66
